Time;durP1;ratioP1;P1;durP2;ratioP2;P2;SDS_P1;SDS_P2;PMS_P1;PMS_P2;Temp;Humidity;BMP_temperature;BMP_pressure;BME280_temperature;BME280_humidity;BME280_pressure;Samples;Min_cycle;Max_cycle;Signal;HPM_P1;HPM_P2
2023/03/18 00:01:17;;;;;;;0.50;0.50;;;1.90;99.90;;;;;;5052390;28;20186;-74
2023/03/18 00:03:44;;;;;;;0.80;0.80;;;1.90;99.90;;;;;;5052150;28;20221;-73
2023/03/18 00:06:17;;;;;;;0.90;0.85;;;1.80;99.90;;;;;;5034670;28;20209;-74
2023/03/18 00:08:44;;;;;;;1.38;1.27;;;1.90;99.90;;;;;;5052499;28;20279;-74
2023/03/18 00:11:11;;;;;;;0.65;0.65;;;1.80;99.90;;;;;;5052355;28;20202;-74
2023/03/18 00:13:38;;;;;;;0.77;0.77;;;1.90;99.90;;;;;;5052290;28;20673;-72
2023/03/18 00:16:05;;;;;;;0.60;0.60;;;1.90;99.90;;;;;;5034838;28;20217;-74
2023/03/18 00:18:33;;;;;;;4.22;2.85;;;1.90;99.90;;;;;;5052218;28;20189;-74
2023/03/18 00:20:59;;;;;;;0.65;0.65;;;1.90;99.90;;;;;;5037791;28;20217;-74
2023/03/18 00:23:27;;;;;;;0.60;0.60;;;1.90;99.90;;;;;;5055671;28;20252;-73
2023/03/18 00:25:55;;;;;;;1.63;1.02;;;1.80;99.90;;;;;;5037809;28;20209;-74
2023/03/18 00:28:22;;;;;;;0.90;0.90;;;1.80;99.90;;;;;;5055761;28;20217;-71
2023/03/18 00:30:48;;;;;;;0.70;0.70;;;1.80;99.90;;;;;;5055232;28;20190;-74
2023/03/18 00:33:15;;;;;;;0.80;0.80;;;1.80;99.90;;;;;;5038194;28;20202;-73
2023/03/18 00:35:41;;;;;;;0.80;0.80;;;1.80;99.90;;;;;;5055603;28;20201;-73
2023/03/18 00:38:08;;;;;;;0.85;0.85;;;1.80;99.90;;;;;;5055873;28;20285;-73
2023/03/18 00:40:52;;;;;;;0.73;0.73;;;1.80;99.90;;;;;;5055447;28;20201;-73
2023/03/18 00:43:28;;;;;;;2.17;1.48;;;1.80;99.90;;;;;;5055478;28;20197;-71
2023/03/18 00:45:57;;;;;;;0.80;0.80;;;1.90;99.90;;;;;;5055739;28;20271;-73
2023/03/18 00:48:24;;;;;;;1.10;1.10;;;1.90;99.90;;;;;;5037364;28;20206;-73
2023/03/18 00:50:50;;;;;;;0.57;0.57;;;1.90;99.90;;;;;;5055815;28;20202;-73
2023/03/18 00:53:17;;;;;;;1.25;1.20;;;1.90;99.90;;;;;;5055550;28;20221;-73
2023/03/18 00:55:43;;;;;;;0.90;0.90;;;1.90;99.90;;;;;;5037309;28;20231;-73
2023/03/18 00:58:10;;;;;;;0.68;0.68;;;1.90;99.90;;;;;;5055545;28;20185;-73
2023/03/18 01:00:37;;;;;;;1.17;1.17;;;2.00;99.90;;;;;;5054917;28;20202;-73
2023/03/18 01:03:03;;;;;;;1.00;1.00;;;2.00;99.90;;;;;;5054937;28;20271;-74
2023/03/18 01:05:31;;;;;;;2.15;1.77;;;2.00;99.90;;;;;;5054947;28;20209;-73
2023/03/18 01:07:57;;;;;;;0.73;0.73;;;1.90;99.90;;;;;;5037409;28;20205;-74
2023/03/18 01:10:23;;;;;;;0.52;0.52;;;1.90;99.90;;;;;;5054861;28;20203;-74
2023/03/18 01:12:49;;;;;;;0.60;0.60;;;1.90;99.90;;;;;;5055132;28;20189;-74
2023/03/18 01:15:18;;;;;;;0.60;0.60;;;2.00;99.90;;;;;;5054847;28;20224;-74
2023/03/18 01:17:45;;;;;;;0.70;0.70;;;1.90;99.90;;;;;;5054936;28;20193;-74
2023/03/18 01:20:13;;;;;;;1.85;1.48;;;1.90;99.90;;;;;;5054006;28;20622;-70
2023/03/18 01:22:41;;;;;;;0.60;0.60;;;2.00;99.90;;;;;;5054715;28;20193;-70
2023/03/18 01:25:08;;;;;;;0.70;0.70;;;2.00;99.90;;;;;;5054596;28;20255;-70
2023/03/18 01:27:35;;;;;;;1.10;1.10;;;2.00;99.90;;;;;;5054592;28;20193;-71
2023/03/18 01:30:02;;;;;;;0.63;0.63;;;2.10;99.90;;;;;;5054563;28;20213;-71
2023/03/18 01:32:27;;;;;;;2.78;1.15;;;2.00;99.90;;;;;;5053566;28;20727;-70
2023/03/18 01:34:53;;;;;;;1.17;1.08;;;2.00;99.90;;;;;;5054782;28;20277;-71
2023/03/18 01:37:20;;;;;;;0.70;0.70;;;2.00;99.90;;;;;;5054664;28;20209;-70
2023/03/18 01:39:46;;;;;;;0.80;0.80;;;2.10;99.90;;;;;;5054212;28;20190;-71
2023/03/18 01:42:13;;;;;;;0.95;0.80;;;2.00;99.90;;;;;;5054498;28;20255;-71
2023/03/18 01:44:39;;;;;;;2.05;1.08;;;2.00;99.90;;;;;;5054172;28;20225;-70
2023/03/18 01:47:06;;;;;;;0.50;0.50;;;2.00;99.90;;;;;;5054490;28;20652;-71
2023/03/18 01:49:40;;;;;;;0.60;0.60;;;2.00;99.90;;;;;;5054363;28;20189;-71
2023/03/18 01:52:22;;;;;;;0.70;0.70;;;1.90;99.90;;;;;;5054387;28;20197;-71
2023/03/18 01:55:07;;;;;;;3.28;1.23;;;1.90;99.90;;;;;;5054462;28;20193;-71
2023/03/18 01:57:34;;;;;;;0.60;0.60;;;1.90;99.90;;;;;;5054118;28;20201;-70
2023/03/18 02:00:01;;;;;;;0.63;0.63;;;1.90;99.90;;;;;;5054283;28;20193;-71
2023/03/18 02:02:27;;;;;;;0.60;0.60;;;2.00;99.90;;;;;;5071431;22;20748;-71
2023/03/18 02:04:56;;;;;;;0.90;0.90;;;2.00;99.90;;;;;;5073492;28;20193;-71
2023/03/18 02:07:28;;;;;;;0.60;0.60;;;2.00;99.90;;;;;;5073314;28;20193;-71
2023/03/18 02:09:57;;;;;;;2.80;1.67;;;1.90;99.90;;;;;;5055553;28;20203;-71
2023/03/18 02:12:29;;;;;;;0.98;0.98;;;1.90;99.90;;;;;;5073330;28;20663;-71
2023/03/18 02:14:55;;;;;;;0.80;0.80;;;1.90;99.90;;;;;;5073400;28;20189;-71
2023/03/18 02:17:34;;;;;;;0.50;0.50;;;1.90;99.90;;;;;;5055030;28;20205;-71
2023/03/18 02:20:09;;;;;;;2.55;1.17;;;1.90;99.90;;;;;;5073348;28;20279;-71
2023/03/18 02:22:45;;;;;;;0.63;0.63;;;2.00;99.90;;;;;;5073096;28;20200;-71
2023/03/18 02:25:10;;;;;;;0.60;0.60;;;2.00;99.90;;;;;;5073012;28;20283;-72
2023/03/18 02:27:44;;;;;;;1.35;1.25;;;2.00;99.90;;;;;;5072923;28;20267;-71
2023/03/18 02:30:15;;;;;;;0.80;0.80;;;1.90;99.90;;;;;;5055181;28;20307;-71
2023/03/18 02:32:41;;;;;;;0.60;0.60;;;1.90;99.90;;;;;;5073014;28;20197;-71
2023/03/18 02:35:09;;;;;;;1.20;1.10;;;1.90;99.90;;;;;;5055019;28;20212;-71
2023/03/18 02:37:36;;;;;;;1.02;1.02;;;1.90;99.90;;;;;;5072879;28;20591;-70
2023/03/18 02:40:28;;;;;;;1.70;1.55;;;1.90;99.90;;;;;;5072751;28;20189;-71
2023/03/18 02:42:54;;;;;;;2.85;2.58;;;2.00;99.90;;;;;;5072641;28;20663;-71
2023/03/18 02:45:39;;;;;;;0.70;0.70;;;2.00;99.90;;;;;;5054653;28;20666;-71
2023/03/18 02:48:07;;;;;;;0.63;0.63;;;1.90;99.90;;;;;;5072747;28;20196;-71
2023/03/18 02:50:33;;;;;;;0.80;0.80;;;1.90;99.90;;;;;;5072022;28;20622;-71
2023/03/18 02:53:01;;;;;;;0.63;0.63;;;2.00;99.90;;;;;;5072785;28;20574;-70
2023/03/18 02:55:26;;;;;;;0.60;0.60;;;1.90;99.90;;;;;;5073007;28;20200;-70
2023/03/18 02:57:52;;;;;;;1.00;1.00;;;1.90;99.90;;;;;;5072737;28;20199;-70
2023/03/18 03:00:18;;;;;;;0.70;0.70;;;1.90;99.90;;;;;;5073246;28;20189;-70
2023/03/18 03:02:44;;;;;;;0.70;0.70;;;1.90;99.90;;;;;;5074476;28;20232;-70
2023/03/18 03:05:11;;;;;;;0.70;0.70;;;1.90;99.90;;;;;;5093409;28;20804;-71
2023/03/18 03:07:36;;;;;;;0.70;0.70;;;1.90;99.90;;;;;;5093328;28;20639;-70
2023/03/18 03:10:05;;;;;;;1.38;1.27;;;2.00;99.90;;;;;;5093434;28;20225;-70
2023/03/18 03:12:31;;;;;;;0.70;0.70;;;2.00;99.90;;;;;;5090980;28;20200;-70
2023/03/18 03:14:57;;;;;;;0.93;0.93;;;2.00;99.90;;;;;;5073146;28;20214;-70
2023/03/18 03:17:23;;;;;;;0.95;0.95;;;2.10;99.90;;;;;;5072841;28;20212;-70
2023/03/18 03:19:49;;;;;;;1.23;0.82;;;2.10;99.90;;;;;;5071818;28;20216;-71
2023/03/18 03:22:16;;;;;;;0.95;0.80;;;2.10;99.90;;;;;;5072959;28;20184;-70
2023/03/18 03:24:43;;;;;;;0.65;0.65;;;2.30;99.90;;;;;;5072620;28;20208;-70
2023/03/18 03:27:09;;;;;;;13.82;2.30;;;2.30;99.90;;;;;;5072981;28;20189;-70
2023/03/18 03:29:36;;;;;;;1.00;1.00;;;2.40;99.90;;;;;;5072781;28;20196;-70
2023/03/18 03:32:01;;;;;;;3.70;1.27;;;2.40;99.90;;;;;;5071766;28;20196;-70
2023/03/18 03:34:27;;;;;;;0.60;0.60;;;2.40;99.90;;;;;;5072868;28;20203;-70
2023/03/18 03:36:53;;;;;;;0.63;0.63;;;2.40;99.90;;;;;;5072020;28;20212;-70
2023/03/18 03:39:19;;;;;;;0.55;0.55;;;2.40;99.90;;;;;;5071897;28;20189;-70
2023/03/18 03:41:44;;;;;;;0.50;0.50;;;2.40;99.90;;;;;;5072839;28;20193;-70
2023/03/18 03:44:10;;;;;;;2.00;1.80;;;2.40;99.90;;;;;;5072801;28;20224;-70
2023/03/18 03:46:36;;;;;;;0.60;0.60;;;2.40;99.90;;;;;;5071893;28;20213;-70
2023/03/18 03:49:03;;;;;;;0.68;0.68;;;2.40;99.90;;;;;;5071461;28;20253;-70
2023/03/18 03:51:29;;;;;;;0.57;0.57;;;2.40;99.90;;;;;;5072431;28;20196;-70
2023/03/18 03:53:54;;;;;;;1.70;1.58;;;2.30;99.90;;;;;;5072072;28;20216;-70
2023/03/18 03:56:21;;;;;;;1.00;1.00;;;2.30;99.90;;;;;;5076473;28;20210;-70
2023/03/18 03:58:46;;;;;;;0.80;0.80;;;2.20;99.90;;;;;;5076738;28;20185;-70
2023/03/18 04:01:12;;;;;;;0.80;0.80;;;2.20;99.90;;;;;;5067256;28;20343;-70
2023/03/18 04:03:38;;;;;;;0.90;0.90;;;2.20;99.90;;;;;;5086458;28;20228;-68
2023/03/18 04:06:05;;;;;;;1.05;1.05;;;2.20;99.90;;;;;;5096794;28;20225;-70
2023/03/18 04:08:31;;;;;;;0.90;0.90;;;2.20;99.90;;;;;;5096550;28;20198;-70
2023/03/18 04:10:57;;;;;;;0.77;0.77;;;2.20;99.90;;;;;;5077420;28;20197;-70
2023/03/18 04:13:23;;;;;;;1.65;1.55;;;2.10;99.90;;;;;;5076126;28;20209;-70
2023/03/18 04:15:49;;;;;;;1.65;1.35;;;2.20;99.90;;;;;;5075582;28;20258;-70
2023/03/18 04:18:15;;;;;;;0.73;0.73;;;2.20;99.90;;;;;;5076329;28;20601;-70
2023/03/18 04:20:42;;;;;;;4.75;2.30;;;2.20;99.90;;;;;;5075945;28;20185;-69
2023/03/18 04:23:08;;;;;;;0.80;0.80;;;2.30;99.90;;;;;;5074514;28;20200;-69
2023/03/18 04:25:35;;;;;;;0.70;0.70;;;2.30;99.90;;;;;;5037676;28;21011;-69
2023/03/18 04:28:01;;;;;;;0.82;0.82;;;2.40;99.90;;;;;;5038335;28;20564;-69
2023/03/18 04:30:27;;;;;;;1.20;1.17;;;2.40;99.90;;;;;;5038115;28;20653;-69
2023/03/18 04:32:53;;;;;;;0.70;0.70;;;2.40;99.90;;;;;;5060252;28;20196;-69
2023/03/18 04:35:22;;;;;;;1.05;0.95;;;2.40;99.90;;;;;;5057750;28;20196;-69
2023/03/18 04:37:48;;;;;;;0.63;0.63;;;2.30;99.90;;;;;;5057866;28;20193;-69
2023/03/18 04:40:14;;;;;;;0.60;0.60;;;2.30;99.90;;;;;;5075899;28;20234;-69
2023/03/18 04:42:40;;;;;;;1.60;1.35;;;2.30;99.90;;;;;;5075469;28;20288;-69
2023/03/18 04:45:06;;;;;;;1.30;1.20;;;2.30;99.90;;;;;;5075788;28;20276;-68
2023/03/18 04:47:33;;;;;;;1.52;1.35;;;2.30;99.90;;;;;;5075543;28;20212;-69
2023/03/18 04:49:59;;;;;;;0.57;0.57;;;2.30;99.90;;;;;;5057600;28;20192;-69
2023/03/18 04:52:25;;;;;;;1.30;1.20;;;2.40;99.90;;;;;;5075377;28;20189;-68
2023/03/18 04:54:51;;;;;;;0.70;0.70;;;2.40;99.90;;;;;;5056885;28;20290;-69
2023/03/18 04:57:17;;;;;;;0.88;0.88;;;2.40;99.90;;;;;;5075359;28;20347;-69
2023/03/18 04:59:44;;;;;;;0.85;0.85;;;2.30;99.90;;;;;;5075297;28;20192;-69
2023/03/18 05:02:09;;;;;;;1.75;1.40;;;2.30;99.90;;;;;;5075102;28;20662;-69
2023/03/18 05:04:36;;;;;;;0.95;0.95;;;2.40;99.90;;;;;;5075246;28;20189;-69
2023/03/18 05:07:02;;;;;;;0.73;0.73;;;2.40;99.90;;;;;;5075021;28;20686;-69
2023/03/18 05:09:27;;;;;;;0.88;0.88;;;2.40;99.90;;;;;;5056877;28;20232;-69
2023/03/18 05:11:53;;;;;;;3.60;1.15;;;2.40;99.90;;;;;;5057333;28;20193;-69
2023/03/18 05:14:19;;;;;;;1.17;0.90;;;2.40;99.90;;;;;;5075258;28;20228;-69
2023/03/18 05:16:45;;;;;;;0.85;0.85;;;2.50;99.90;;;;;;5074982;28;20266;-69
2023/03/18 05:19:11;;;;;;;4.00;2.25;;;2.50;99.90;;;;;;5075287;28;20721;-69
2023/03/18 05:21:37;;;;;;;0.73;0.73;;;2.50;99.90;;;;;;5074874;28;20193;-69
2023/03/18 05:24:03;;;;;;;1.25;1.10;;;2.50;99.90;;;;;;5065875;28;20196;-69
2023/03/18 05:26:29;;;;;;;0.95;0.90;;;2.40;99.90;;;;;;5054913;28;20679;-69
2023/03/18 05:28:56;;;;;;;1.45;1.35;;;2.40;99.90;;;;;;5039389;28;20667;-69
2023/03/18 05:31:21;;;;;;;1.02;0.93;;;2.40;99.90;;;;;;5074738;28;20188;-69
2023/03/18 05:33:47;;;;;;;0.57;0.57;;;2.40;99.90;;;;;;5056315;28;20568;-69
2023/03/18 05:36:13;;;;;;;0.70;0.70;;;2.40;99.90;;;;;;5074643;28;20663;-69
2023/03/18 05:38:39;;;;;;;0.70;0.70;;;2.30;99.90;;;;;;5074774;28;20199;-69
2023/03/18 05:41:06;;;;;;;0.80;0.80;;;2.30;99.90;;;;;;5074626;28;20250;-70
2023/03/18 05:43:31;;;;;;;0.63;0.63;;;2.20;99.90;;;;;;5074353;28;20181;-70
2023/03/18 05:45:57;;;;;;;1.13;1.05;;;2.20;99.90;;;;;;5074718;28;20208;-69
2023/03/18 05:48:24;;;;;;;2.45;1.70;;;2.10;99.90;;;;;;5074212;28;20223;-70
2023/03/18 05:50:51;;;;;;;0.70;0.70;;;2.10;99.90;;;;;;5074663;28;20195;-70
2023/03/18 05:53:17;;;;;;;0.60;0.60;;;2.10;99.90;;;;;;5056402;28;20709;-70
2023/03/18 05:55:43;;;;;;;0.85;0.85;;;2.10;99.90;;;;;;5074074;28;20212;-70
2023/03/18 05:58:09;;;;;;;1.27;1.17;;;2.10;99.90;;;;;;5074466;28;20250;-70
2023/03/18 06:00:36;;;;;;;0.50;0.50;;;2.10;99.90;;;;;;5074100;28;20204;-70
2023/03/18 06:03:02;;;;;;;0.82;0.82;;;2.10;99.90;;;;;;5059896;28;20224;-70
2023/03/18 06:05:29;;;;;;;0.60;0.60;;;2.10;99.90;;;;;;5072811;28;20292;-69
2023/03/18 06:07:56;;;;;;;0.70;0.70;;;2.10;99.90;;;;;;5074241;28;20213;-70
2023/03/18 06:10:24;;;;;;;0.80;0.80;;;2.10;99.90;;;;;;5073980;28;20220;-69
2023/03/18 06:12:50;;;;;;;0.80;0.80;;;2.10;99.90;;;;;;5073481;28;20191;-70
2023/03/18 06:15:17;;;;;;;0.73;0.73;;;2.10;99.90;;;;;;5072319;28;20203;-69
2023/03/18 06:17:43;;;;;;;1.05;1.02;;;2.10;99.90;;;;;;5073413;28;20189;-70
2023/03/18 06:20:10;;;;;;;0.70;0.70;;;2.10;99.90;;;;;;5073950;28;20674;-70
2023/03/18 06:22:37;;;;;;;0.70;0.70;;;2.10;99.90;;;;;;5073756;28;20185;-70
2023/03/18 06:25:06;;;;;;;0.60;0.60;;;2.10;99.90;;;;;;5070246;28;20194;-70
2023/03/18 06:27:32;;;;;;;1.35;1.25;;;2.10;99.90;;;;;;5073531;28;20200;-69
2023/03/18 06:30:01;;;;;;;0.80;0.80;;;2.00;99.90;;;;;;5073879;28;20197;-70
2023/03/18 06:32:28;;;;;;;0.80;0.80;;;2.10;99.90;;;;;;5073665;28;20197;-70
2023/03/18 06:34:54;;;;;;;0.60;0.60;;;2.10;99.90;;;;;;5073730;28;20242;-70
2023/03/18 06:37:20;;;;;;;0.70;0.70;;;2.10;99.90;;;;;;5072170;28;20232;-70
2023/03/18 06:39:46;;;;;;;0.60;0.60;;;2.10;99.90;;;;;;5072120;28;20208;-70
2023/03/18 06:42:12;;;;;;;0.90;0.90;;;2.10;99.90;;;;;;5073549;28;20267;-69
2023/03/18 06:44:41;;;;;;;0.90;0.90;;;2.10;99.90;;;;;;5073327;28;20193;-70
2023/03/18 06:47:07;;;;;;;0.82;0.82;;;2.20;99.90;;;;;;5073557;28;20670;-70
2023/03/18 06:49:33;;;;;;;1.02;1.02;;;2.20;99.90;;;;;;5073097;28;20197;-70
2023/03/18 06:51:59;;;;;;;0.95;0.95;;;2.20;99.90;;;;;;5073054;28;20204;-70
2023/03/18 06:54:25;;;;;;;0.60;0.60;;;2.20;99.90;;;;;;5072625;28;20651;-70
2023/03/18 06:56:51;;;;;;;0.90;0.85;;;2.30;99.90;;;;;;5073288;28;20204;-70
2023/03/18 06:59:18;;;;;;;0.80;0.80;;;2.40;99.90;;;;;;5073313;28;20189;-70
2023/03/18 07:01:43;;;;;;;1.00;0.93;;;2.40;99.90;;;;;;5071670;28;20197;-70
2023/03/18 07:04:10;;;;;;;0.80;0.80;;;2.40;99.90;;;;;;5072314;28;20231;-70
2023/03/18 07:06:35;;;;;;;1.00;1.00;;;2.50;99.90;;;;;;5054059;28;20203;-70
2023/03/18 07:09:01;;;;;;;0.90;0.90;;;2.60;99.90;;;;;;5073174;28;20189;-70
2023/03/18 07:11:27;;;;;;;0.90;0.90;;;2.70;99.90;;;;;;5072951;28;20272;-70
2023/03/18 07:13:53;;;;;;;2.30;1.27;;;2.70;99.90;;;;;;5073323;28;20247;-70
2023/03/18 07:16:19;;;;;;;0.70;0.70;;;2.70;99.90;;;;;;5054903;28;20683;-70
2023/03/18 07:18:45;;;;;;;1.48;1.35;;;2.80;99.90;;;;;;5073032;28;20246;-70
2023/03/18 07:21:12;;;;;;;1.15;1.15;;;2.70;99.90;;;;;;5072755;28;20189;-70
2023/03/18 07:23:38;;;;;;;1.17;1.17;;;2.70;99.90;;;;;;5051272;28;20238;-70
2023/03/18 07:26:04;;;;;;;0.80;0.80;;;2.70;99.90;;;;;;5034966;28;20205;-70
2023/03/18 07:28:30;;;;;;;0.98;0.98;;;2.70;99.90;;;;;;5054183;28;20284;-70
2023/03/18 07:30:56;;;;;;;0.68;0.68;;;2.70;99.90;;;;;;5056990;28;20251;-71
2023/03/18 07:33:23;;;;;;;1.30;1.25;;;2.90;99.90;;;;;;5056360;28;20197;-71
2023/03/18 07:35:48;;;;;;;0.82;0.82;;;3.10;99.90;;;;;;5039236;28;20202;-71
2023/03/18 07:38:14;;;;;;;0.55;0.55;;;3.30;99.90;;;;;;5056862;28;20193;-70
2023/03/18 07:40:40;;;;;;;0.55;0.55;;;3.50;99.90;;;;;;5063185;28;20312;-71
2023/03/18 07:43:06;;;;;;;1.52;1.42;;;3.60;99.90;;;;;;5076845;28;20196;-71
2023/03/18 07:45:33;;;;;;;1.42;1.20;;;3.80;99.90;;;;;;5077124;28;20189;-70
2023/03/18 07:47:59;;;;;;;0.80;0.80;;;3.90;99.90;;;;;;5076899;28;20555;-70
2023/03/18 07:50:25;;;;;;;0.70;0.70;;;3.90;99.90;;;;;;5076565;28;20203;-71
2023/03/18 07:52:51;;;;;;;0.70;0.70;;;3.90;99.90;;;;;;5076817;28;20599;-71
2023/03/18 07:55:16;;;;;;;0.95;0.90;;;3.90;99.90;;;;;;5076533;28;20196;-70
2023/03/18 07:57:42;;;;;;;1.00;1.00;;;3.90;99.90;;;;;;5058521;28;20320;-71
2023/03/18 08:00:11;;;;;;;1.23;1.17;;;3.80;99.90;;;;;;5076474;28;20197;-72
2023/03/18 08:02:37;;;;;;;0.73;0.73;;;3.80;99.90;;;;;;5075838;28;20267;-72
2023/03/18 08:05:05;;;;;;;0.80;0.80;;;3.90;99.90;;;;;;5076604;28;20189;-72
2023/03/18 08:07:32;;;;;;;0.60;0.60;;;4.00;99.90;;;;;;5056119;28;20190;-72
2023/03/18 08:09:58;;;;;;;0.80;0.80;;;4.10;99.90;;;;;;5056443;28;20185;-72
2023/03/18 08:12:24;;;;;;;0.60;0.60;;;4.10;99.90;;;;;;5055826;28;20190;-71
2023/03/18 08:14:50;;;;;;;0.80;0.80;;;4.20;99.90;;;;;;5055805;28;20197;-72
2023/03/18 08:17:16;;;;;;;0.60;0.60;;;4.20;99.90;;;;;;5038287;28;20252;-72
2023/03/18 08:19:42;;;;;;;0.75;0.75;;;4.20;99.90;;;;;;5075363;28;20588;-72
2023/03/18 08:22:09;;;;;;;1.42;1.33;;;4.20;99.90;;;;;;5075957;28;20219;-73
2023/03/18 08:24:37;;;;;;;0.93;0.93;;;4.20;99.90;;;;;;5061240;28;20201;-73
2023/03/18 08:27:03;;;;;;;0.77;0.77;;;4.20;99.90;;;;;;5038078;28;20205;-73
2023/03/18 08:29:29;;;;;;;0.80;0.80;;;4.20;99.90;;;;;;5055914;28;20193;-73
2023/03/18 08:31:54;;;;;;;0.88;0.88;;;4.30;99.90;;;;;;5055947;28;20698;-73
2023/03/18 08:34:20;;;;;;;0.75;0.75;;;4.30;99.90;;;;;;5055681;28;20223;-73
2023/03/18 08:36:47;;;;;;;1.33;1.23;;;4.30;99.90;;;;;;5037939;28;20217;-73
2023/03/18 08:39:13;;;;;;;0.60;0.60;;;4.30;99.90;;;;;;5037910;28;20674;-71
2023/03/18 08:41:39;;;;;;;1.70;1.45;;;4.30;99.90;;;;;;5037114;28;20612;-72
2023/03/18 08:44:07;;;;;;;1.60;1.23;;;4.40;99.90;;;;;;5055931;28;20216;-71
2023/03/18 08:46:33;;;;;;;0.70;0.70;;;4.40;99.90;;;;;;5055617;28;20220;-71
2023/03/18 08:48:59;;;;;;;2.38;1.42;;;4.50;99.90;;;;;;5055585;28;20190;-72
2023/03/18 08:51:25;;;;;;;0.80;0.80;;;4.50;99.90;;;;;;5067369;28;20193;-71
2023/03/18 08:53:51;;;;;;;0.70;0.70;;;4.50;99.90;;;;;;5056863;28;20677;-72
2023/03/18 08:56:17;;;;;;;1.40;1.30;;;4.60;99.90;;;;;;5075707;28;20354;-71
2023/03/18 08:58:47;;;;;;;0.70;0.70;;;4.60;99.90;;;;;;5075556;28;20280;-71
2023/03/18 09:01:13;;;;;;;0.90;0.90;;;4.60;99.90;;;;;;5075209;28;20195;-73
2023/03/18 09:03:39;;;;;;;2.80;2.15;;;4.60;99.90;;;;;;5074861;28;20238;-72
2023/03/18 09:06:05;;;;;;;0.80;0.80;;;4.60;99.90;;;;;;5075337;28;20196;-71
2023/03/18 09:08:32;;;;;;;1.20;1.20;;;4.50;99.90;;;;;;5075203;28;20574;-72
2023/03/18 09:10:58;;;;;;;0.80;0.80;;;4.60;99.90;;;;;;5057185;28;20667;-71
2023/03/18 09:13:25;;;;;;;0.70;0.70;;;4.60;99.90;;;;;;5075233;28;20192;-74
2023/03/18 09:15:51;;;;;;;0.70;0.70;;;4.60;99.90;;;;;;5074886;28;20227;-74
2023/03/18 09:18:17;;;;;;;0.80;0.80;;;4.60;99.90;;;;;;5075208;28;20664;-71
2023/03/18 09:20:45;;;;;;;0.60;0.60;;;4.60;99.90;;;;;;5074833;28;20192;-71
2023/03/18 09:23:12;;;;;;;1.00;1.00;;;4.60;99.90;;;;;;5074814;28;20292;-72
2023/03/18 09:25:39;;;;;;;0.70;0.70;;;4.60;99.90;;;;;;5074787;28;20686;-71
2023/03/18 09:28:05;;;;;;;0.95;0.95;;;4.70;99.90;;;;;;5075043;28;20188;-71
2023/03/18 09:30:32;;;;;;;0.90;0.90;;;4.80;99.90;;;;;;5056842;28;20193;-72
2023/03/18 09:32:58;;;;;;;0.90;0.90;;;4.90;99.90;;;;;;5074636;28;20222;-71
2023/03/18 09:35:24;;;;;;;1.55;1.45;;;5.00;99.90;;;;;;5074073;28;20192;-71
2023/03/18 09:37:50;;;;;;;2.08;1.55;;;5.00;99.90;;;;;;5056804;28;20197;-71
2023/03/18 09:40:34;;;;;;;0.70;0.70;;;5.10;99.90;;;;;;5074855;28;20211;-72
2023/03/18 09:43:06;;;;;;;1.27;1.17;;;5.20;99.90;;;;;;5056722;28;20253;-72
2023/03/18 09:46:16;;;;;;;0.98;0.98;;;5.20;99.90;;;;;;5074537;28;20674;-71
2023/03/18 09:48:53;;;;;;;0.77;0.77;;;5.30;99.90;;;;;;5054542;28;20556;-70
2023/03/18 09:51:37;;;;;;;1.15;1.05;;;5.20;99.90;;;;;;5047210;28;20209;-70
2023/03/18 09:54:15;;;;;;;1.48;1.38;;;5.30;99.90;;;;;;5056253;28;20189;-70
2023/03/18 09:56:44;;;;;;;0.70;0.70;;;5.40;99.90;;;;;;5074160;28;20271;-70
2023/03/18 09:59:43;;;;;;;0.77;0.77;;;5.50;99.90;;;;;;5074242;28;20193;-71
2023/03/18 10:02:40;;;;;;;0.68;0.68;;;5.60;99.90;;;;;;5047077;28;20216;-70
2023/03/18 10:05:33;;;;;;;1.15;1.15;;;5.50;99.90;;;;;;5073398;28;20691;-73
2023/03/18 10:08:12;;;;;;;0.82;0.82;;;5.60;99.90;;;;;;5073461;28;20307;-71
2023/03/18 10:10:45;;;;;;;0.75;0.75;;;5.80;99.90;;;;;;5073742;28;20201;-71
2023/03/18 10:13:32;;;;;;;1.15;1.15;;;5.90;99.90;;;;;;5056017;28;20288;-71
2023/03/18 10:16:06;;;;;;;0.80;0.80;;;6.10;99.90;;;;;;5073813;28;20212;-72
2023/03/18 10:18:42;;;;;;;0.90;0.90;;;6.20;99.90;;;;;;5073815;28;20189;-72
2023/03/18 10:21:20;;;;;;;0.70;0.70;;;6.40;99.90;;;;;;5073838;28;20272;-71
2023/03/18 10:24:06;;;;;;;1.10;1.10;;;6.50;99.90;;;;;;5066847;28;20209;-72
2023/03/18 10:26:46;;;;;;;0.70;0.70;;;6.60;99.90;;;;;;5039590;28;20245;-72
2023/03/18 10:29:12;;;;;;;0.70;0.70;;;6.50;99.90;;;;;;5053757;28;20217;-71
2023/03/18 10:31:53;;;;;;;0.63;0.63;;;6.50;99.90;;;;;;5053597;28;20694;-71
2023/03/18 10:34:28;;;;;;;0.70;0.70;;;6.40;99.90;;;;;;5052342;28;20197;-72
2023/03/18 10:37:10;;;;;;;0.82;0.80;;;6.30;99.90;;;;;;5052252;28;20604;-72
2023/03/18 10:39:36;;;;;;;0.90;0.90;;;6.20;99.90;;;;;;5053333;28;20190;-73
2023/03/18 10:42:25;;;;;;;0.70;0.70;;;6.10;99.90;;;;;;5053462;28;20599;-73
2023/03/18 10:44:53;;;;;;;0.70;0.70;;;6.00;99.90;;;;;;5071901;28;20200;-72
2023/03/18 10:47:27;;;;;;;1.08;1.08;;;5.90;99.90;;;;;;5073059;28;20580;-72
2023/03/18 10:49:53;;;;;;;0.80;0.80;;;5.80;99.90;;;;;;5073261;28;20188;-73
2023/03/18 10:53:02;;;;;;;1.17;1.08;;;5.90;99.90;;;;;;5055447;28;20219;-73
2023/03/18 10:55:34;;;;;;;0.70;0.70;;;5.80;99.90;;;;;;5059726;28;20204;-71
2023/03/18 10:58:13;;;;;;;1.10;1.10;;;5.80;99.90;;;;;;5073254;28;20196;-71
2023/03/18 11:00:40;;;;;;;1.10;1.10;;;5.80;99.90;;;;;;5054961;28;20201;-71
2023/03/18 11:03:17;;;;;;;0.80;0.80;;;5.70;99.90;;;;;;5094874;22;20254;-77
2023/03/18 11:09:07;;;;;;;0.70;0.70;;;5.60;99.90;;;;;;5064900;28;20690;-78
2023/03/18 11:11:38;;;;;;;1.23;1.13;;;5.60;99.90;;;;;;5074456;28;20701;-79
2023/03/18 11:14:06;;;;;;;0.60;0.60;;;5.60;99.90;;;;;;5077833;28;20697;-78
2023/03/18 11:16:58;;;;;;;0.77;0.77;;;5.50;99.90;;;;;;5075211;28;20203;-79
2023/03/18 11:19:37;;;;;;;0.70;0.70;;;5.50;99.90;;;;;;5080635;28;20211;-79
2023/03/18 11:22:16;;;;;;;0.90;0.90;;;5.60;99.90;;;;;;5091759;28;20208;-79
2023/03/18 11:24:42;;;;;;;1.23;1.15;;;5.60;99.90;;;;;;5077192;28;20647;-79
2023/03/18 11:27:16;;;;;;;1.05;1.05;;;5.60;99.90;;;;;;5071751;28;20231;-79
2023/03/18 11:29:48;;;;;;;0.90;0.90;;;5.70;99.90;;;;;;5072866;28;20196;-77
2023/03/18 11:32:25;;;;;;;0.88;0.88;;;5.60;99.90;;;;;;5091214;28;20662;-78
2023/03/18 11:35:01;;;;;;;0.90;0.90;;;5.50;99.90;;;;;;5091249;28;20192;-78
2023/03/18 11:37:40;;;;;;;0.68;0.68;;;5.60;99.90;;;;;;5072527;28;20207;-78
2023/03/18 11:40:26;;;;;;;0.90;0.90;;;5.70;99.90;;;;;;5090914;28;20193;-79
2023/03/18 11:43:01;;;;;;;0.63;0.63;;;5.60;99.90;;;;;;5072769;28;20276;-79
2023/03/18 11:45:45;;;;;;;0.60;0.60;;;5.70;99.90;;;;;;5091404;28;20210;-78
2023/03/18 11:48:16;;;;;;;1.33;1.25;;;5.70;99.90;;;;;;5092277;28;20218;-78
2023/03/18 11:50:55;;;;;;;0.70;0.70;;;5.70;99.90;;;;;;5091607;28;20551;-79
2023/03/18 11:53:52;;;;;;;0.70;0.70;;;5.80;99.90;;;;;;5091292;28;20195;-78
2023/03/18 11:56:50;;;;;;;1.00;0.90;;;5.80;99.90;;;;;;5073275;28;20260;-79
2023/03/18 11:59:48;;;;;;;0.82;0.82;;;5.80;99.90;;;;;;5075080;28;20208;-78
2023/03/18 12:02:23;;;;;;;0.70;0.70;;;5.70;99.90;;;;;;5058821;28;20268;-78
2023/03/18 12:05:13;;;;;;;0.70;0.70;;;5.70;99.90;;;;;;5069673;28;20201;-79
2023/03/18 12:08:13;;;;;;;1.02;1.02;;;5.60;99.90;;;;;;5068906;28;20196;-79
2023/03/18 12:10:47;;;;;;;0.70;0.70;;;5.50;99.90;;;;;;5070560;28;20189;-79
2023/03/18 12:13:42;;;;;;;0.63;0.63;;;5.50;99.90;;;;;;5071478;28;20193;-79
2023/03/18 12:16:23;;;;;;;0.60;0.60;;;5.40;99.90;;;;;;5073206;28;20224;-79
2023/03/18 12:19:08;;;;;;;1.10;1.10;;;5.40;99.90;;;;;;5073760;28;20659;-79
2023/03/18 12:22:05;;;;;;;1.25;1.15;;;5.60;99.90;;;;;;5073675;28;20555;-80
2023/03/18 12:25:14;;;;;;;0.70;0.70;;;5.80;99.90;;;;;;5074948;28;20185;-79
2023/03/18 12:28:29;;;;;;;0.90;0.90;;;5.90;99.90;;;;;;5067292;28;20253;-79
2023/03/18 12:31:13;;;;;;;0.95;0.95;;;6.00;99.90;;;;;;5056456;28;20561;-79
2023/03/18 12:34:00;;;;;;;0.70;0.70;;;6.10;99.90;;;;;;5073311;28;20192;-79
2023/03/18 12:36:48;;;;;;;0.75;0.75;;;6.20;99.90;;;;;;5064225;28;20671;-79
2023/03/18 12:39:36;;;;;;;0.70;0.70;;;6.30;99.90;;;;;;5074526;28;20281;-79
2023/03/18 12:42:52;;;;;;;0.77;0.77;;;6.40;99.90;;;;;;5074405;28;20193;-79
2023/03/18 12:45:25;;;;;;;0.70;0.70;;;6.40;99.90;;;;;;5018376;28;20205;-79
2023/03/18 12:48:02;;;;;;;0.70;0.70;;;6.50;99.90;;;;;;5086151;28;20678;-79
2023/03/18 12:50:35;;;;;;;0.80;0.80;;;6.60;99.90;;;;;;5093615;28;20192;-80
2023/03/18 12:53:19;;;;;;;0.60;0.60;;;6.60;99.90;;;;;;5093915;28;20564;-80
2023/03/18 12:55:57;;;;;;;0.60;0.60;;;6.60;99.90;;;;;;5075518;28;20566;-81
2023/03/18 12:58:47;;;;;;;0.70;0.70;;;6.70;99.90;;;;;;5093594;28;20188;-80
2023/03/18 13:01:19;;;;;;;0.70;0.70;;;6.60;99.90;;;;;;5075388;28;20208;-80
2023/03/18 13:04:10;;;;;;;3.03;1.33;;;6.50;99.90;;;;;;5093806;28;20200;-80
2023/03/18 13:06:50;;;;;;;1.13;1.13;;;6.60;99.90;;;;;;5078229;28;20744;-80
2023/03/18 13:09:39;;;;;;;1.70;1.60;;;6.60;99.90;;;;;;5075162;28;20229;-80
2023/03/18 13:12:09;;;;;;;0.85;0.85;;;6.40;99.90;;;;;;5075377;28;20253;-80
2023/03/18 13:14:59;;;;;;;0.60;0.60;;;6.40;99.90;;;;;;5093380;28;20226;-80
2023/03/18 13:17:28;;;;;;;0.73;0.73;;;6.40;99.90;;;;;;5093612;28;20235;-80
2023/03/18 13:19:58;;;;;;;0.80;0.80;;;6.20;99.90;;;;;;5093354;28;20188;-79